Lakehurst NAES, Maxfield Field Lakehurst US
ICAO: KNEL
IATA: NEL
Category: Medium
Scheduled Services: No

Elevation: 101 ft
TransAlt. 18000 ft.

Airport Communications:
MC GUIRE APP/DEP:124.15
GND:118.375
MILLVILLE RDO:113.8
TWR:127.775

KNEL Zoom In..

If you have problems with the map follow the link
https://www.worldairports.se/pages/airport.php?
ICAO=KNEL

Runways:

(A) RW 06 length 5002 ft width 150 ft
---- / hdg 62

(B) RW 15 length 5001 ft width 150 ft
---- / hdg 152

(C) RW 24 length 5002 ft width 150 ft
---- / hdg 242

(D) RW 33 length 5001 ft width 150 ft
---- / hdg 332

Location; KNEL
Day. 08 / Time. 19.00 Zulu
* Altimeter: 30.45
* Temperature: 06° c. 42.8°f.
* Wind from: 180° Speed 10 kn.
Dewpoint: -03° c.
Clouds: Clear (automated report).

KNEL 081900Z AUTO 18010KT CLR 06/M03 A3045 RMK AO2 SLP310 T00611033 $


Wind From 180°
Speed 10 kn.

 
 
jpsmedia worldairports.se 2019   terms of use